createdAt,value
2018-02-10T00:00:10.196Z,1015.85
2018-02-10T00:01:11.998Z,1015.85
2018-02-10T00:02:13.786Z,1015.84
2018-02-10T00:03:15.661Z,1015.85
2018-02-10T00:04:17.527Z,1015.87
2018-02-10T00:05:19.379Z,1015.84
2018-02-10T00:06:33.519Z,1015.89
2018-02-10T00:07:35.391Z,1015.89
2018-02-10T00:08:37.238Z,1015.90
2018-02-10T00:09:39.106Z,1015.90
2018-02-10T00:10:40.897Z,1015.90
2018-02-10T00:11:42.700Z,1015.94
2018-02-10T00:12:44.664Z,1015.94
2018-02-10T00:13:46.511Z,1015.97
2018-02-10T00:14:48.357Z,1015.93
2018-02-10T00:16:02.476Z,1015.98
2018-02-10T00:17:04.330Z,1015.93
2018-02-10T00:18:06.199Z,1015.93
2018-02-10T00:19:08.050Z,1015.91
2018-02-10T00:20:09.836Z,1015.90
2018-02-10T00:21:11.639Z,1015.91
2018-02-10T00:22:13.495Z,1015.90
2018-02-10T00:23:15.367Z,1015.92
2018-02-10T00:24:17.223Z,1015.91
2018-02-10T00:25:31.409Z,1015.97
2018-02-10T00:26:33.261Z,1015.92
2018-02-10T00:27:35.126Z,1015.96
2018-02-10T00:28:36.980Z,1015.97
2018-02-10T00:29:38.761Z,1016.00
2018-02-10T00:30:40.549Z,1015.99
2018-02-10T00:31:42.421Z,1016.01
2018-02-10T00:32:44.292Z,1015.97
2018-02-10T00:33:46.158Z,1015.96
2018-02-10T00:35:00.329Z,1016.00
2018-02-10T00:36:02.203Z,1015.96
2018-02-10T00:37:04.051Z,1015.95
2018-02-10T00:38:05.903Z,1015.96
2018-02-10T00:39:07.704Z,1015.95
2018-02-10T00:40:09.491Z,1015.94
2018-02-10T00:41:11.360Z,1015.94
2018-02-10T00:42:13.211Z,1015.93
2018-02-10T00:43:15.064Z,1015.90
2018-02-10T00:44:29.248Z,1015.92
2018-02-10T00:45:31.103Z,1015.91
2018-02-10T00:46:32.951Z,1015.88
2018-02-10T00:47:34.807Z,1015.91
2018-02-10T00:48:36.590Z,1015.89
2018-02-10T00:49:38.373Z,1015.89
2018-02-10T00:50:40.245Z,1015.91
2018-02-10T00:51:42.117Z,1015.90
2018-02-10T00:52:43.989Z,1015.94
2018-02-10T00:53:58.172Z,1015.90
2018-02-10T00:55:00.027Z,1015.92
2018-02-10T00:56:01.879Z,1015.97
2018-02-10T00:57:03.727Z,1015.95
2018-02-10T00:58:05.518Z,1015.94
2018-02-10T00:59:07.324Z,1015.94
2018-02-10T01:00:09.194Z,1015.90
2018-02-10T01:01:11.067Z,1015.93
2018-02-10T01:02:12.938Z,1015.90
2018-02-10T01:03:27.069Z,1015.91
2018-02-10T01:04:28.927Z,1015.95
2018-02-10T01:05:30.776Z,1015.93
2018-02-10T01:06:32.632Z,1015.93
2018-02-10T01:07:34.436Z,1015.95
2018-02-10T01:08:36.223Z,1015.93
2018-02-10T01:09:38.090Z,1015.93
2018-02-10T01:10:39.943Z,1015.93
2018-02-10T01:11:41.809Z,1015.92
2018-02-10T01:12:55.927Z,1015.96
2018-02-10T01:13:57.778Z,1015.94
2018-02-10T01:14:59.637Z,1015.92
2018-02-10T01:16:01.507Z,1015.90
2018-02-10T01:17:03.317Z,1015.93
2018-02-10T01:18:05.087Z,1015.91
2018-02-10T01:19:06.946Z,1015.89
2018-02-10T01:20:08.916Z,1015.88
2018-02-10T01:21:10.768Z,1015.89
2018-02-10T01:22:24.932Z,1015.90
2018-02-10T01:23:26.762Z,1015.86
2018-02-10T01:24:28.612Z,1015.92
2018-02-10T01:25:30.466Z,1015.91
2018-02-10T01:26:32.252Z,1015.94
2018-02-10T01:27:34.058Z,1015.92
2018-02-10T01:28:35.927Z,1015.95
2018-02-10T01:29:37.773Z,1015.94
2018-02-10T01:30:39.632Z,1015.91
2018-02-10T01:31:53.809Z,1015.93
2018-02-10T01:32:55.663Z,1015.91
2018-02-10T01:33:57.520Z,1015.87
2018-02-10T01:34:59.383Z,1015.87
2018-02-10T01:36:01.166Z,1015.89
2018-02-10T01:37:02.953Z,1015.87
2018-02-10T01:38:04.810Z,1015.87
2018-02-10T01:39:06.652Z,1015.88
2018-02-10T01:40:08.503Z,1015.86
2018-02-10T01:41:22.675Z,1015.85
2018-02-10T01:42:24.546Z,1015.86
2018-02-10T01:43:26.401Z,1015.80
2018-02-10T01:44:28.269Z,1015.82
2018-02-10T01:45:30.052Z,1015.84
2018-02-10T01:46:31.844Z,1015.83
2018-02-10T01:47:33.708Z,1015.80
2018-02-10T01:48:35.559Z,1015.80
2018-02-10T01:49:37.408Z,1015.80
2018-02-10T01:50:51.522Z,1015.77
2018-02-10T01:51:53.374Z,1015.75
2018-02-10T01:52:55.225Z,1015.79
2018-02-10T01:53:57.085Z,1015.77
2018-02-10T01:54:58.890Z,1015.79
2018-02-10T01:56:00.676Z,1015.81
2018-02-10T01:57:02.545Z,1015.77
2018-02-10T01:58:04.393Z,1015.77
2018-02-10T01:59:06.265Z,1015.83
2018-02-10T02:00:20.432Z,1015.79
2018-02-10T02:01:22.280Z,1015.85
2018-02-10T02:02:24.133Z,1015.82
2018-02-10T02:03:25.989Z,1015.83
2018-02-10T02:04:27.773Z,1015.85
2018-02-10T02:05:29.557Z,1015.82
2018-02-10T02:06:31.428Z,1015.83
2018-02-10T02:07:33.293Z,1015.87
2018-02-10T02:08:35.142Z,1015.85
2018-02-10T02:09:49.295Z,1015.85
2018-02-10T02:10:51.164Z,1015.82
2018-02-10T02:11:53.015Z,1015.88
2018-02-10T02:12:54.882Z,1015.84
2018-02-10T02:13:56.669Z,1015.87
2018-02-10T02:14:58.449Z,1015.81
2018-02-10T02:16:00.304Z,1015.83
2018-02-10T02:17:02.153Z,1015.80
2018-02-10T02:18:04.005Z,1015.80
2018-02-10T02:19:18.142Z,1015.83
2018-02-10T02:20:20.018Z,1015.83
2018-02-10T02:21:21.884Z,1015.80
2018-02-10T02:22:23.742Z,1015.79
2018-02-10T02:23:25.549Z,1015.76
2018-02-10T02:24:27.346Z,1015.79
2018-02-10T02:25:29.201Z,1015.79
2018-02-10T02:26:31.073Z,1015.79
2018-02-10T02:27:32.937Z,1015.82
2018-02-10T02:28:47.056Z,1015.80
2018-02-10T02:29:48.910Z,1015.78
2018-02-10T02:30:50.780Z,1015.80
2018-02-10T02:31:52.627Z,1015.76
2018-02-10T02:32:54.509Z,1015.78
2018-02-10T02:33:56.295Z,1015.80
2018-02-10T02:34:58.143Z,1015.79
2018-02-10T02:35:59.989Z,1015.77
2018-02-10T02:37:01.844Z,1015.75
2018-02-10T02:38:15.978Z,1015.77
2018-02-10T02:39:17.853Z,1015.73
2018-02-10T02:40:19.725Z,1015.76
2018-02-10T02:41:21.594Z,1015.73
2018-02-10T02:42:23.375Z,1015.71
2018-02-10T02:43:25.157Z,1015.74
2018-02-10T02:44:27.008Z,1015.73
2018-02-10T02:45:28.861Z,1015.76
2018-02-10T02:46:30.727Z,1015.75
2018-02-10T02:47:44.847Z,1015.77
2018-02-10T02:48:46.724Z,1015.76
2018-02-10T02:49:48.593Z,1015.75
2018-02-10T02:50:50.445Z,1015.70
2018-02-10T02:51:52.233Z,1015.75
2018-02-10T02:52:54.022Z,1015.74
2018-02-10T02:53:55.875Z,1015.72
2018-02-10T02:54:57.745Z,1015.75
2018-02-10T02:55:59.592Z,1015.72
2018-02-10T02:57:13.711Z,1015.72
2018-02-10T02:58:15.592Z,1015.71
2018-02-10T02:59:17.438Z,1015.71
2018-02-10T03:00:19.315Z,1015.70
2018-02-10T03:01:21.119Z,1015.71
2018-02-10T03:02:22.909Z,1015.70
2018-02-10T03:03:24.780Z,1015.73
2018-02-10T03:04:26.653Z,1015.70
2018-02-10T03:05:28.525Z,1015.65
2018-02-10T03:06:42.641Z,1015.69
2018-02-10T03:07:44.509Z,1015.66
2018-02-10T03:08:46.362Z,1015.67
2018-02-10T03:09:48.215Z,1015.66
2018-02-10T03:10:50.019Z,1015.64
2018-02-10T03:11:51.806Z,1015.71
2018-02-10T03:12:53.680Z,1015.72
2018-02-10T03:13:55.549Z,1015.72
2018-02-10T03:14:57.404Z,1015.72
2018-02-10T03:16:11.543Z,1015.71
2018-02-10T03:17:13.417Z,1015.72
2018-02-10T03:18:15.290Z,1015.75
2018-02-10T03:19:17.147Z,1015.79
2018-02-10T03:20:18.955Z,1015.75
2018-02-10T03:21:20.765Z,1015.75
2018-02-10T03:22:22.638Z,1015.79
2018-02-10T03:23:24.506Z,1015.77
2018-02-10T03:24:26.366Z,1015.76
2018-02-10T03:25:40.501Z,1015.79
2018-02-10T03:26:42.360Z,1015.77
2018-02-10T03:27:44.233Z,1015.79
2018-02-10T03:28:46.101Z,1015.78
2018-02-10T03:29:47.890Z,1015.79
2018-02-10T03:30:49.677Z,1015.74
2018-02-10T03:31:51.551Z,1015.78
2018-02-10T03:32:53.398Z,1015.77
2018-02-10T03:33:55.248Z,1015.80
2018-02-10T03:35:09.363Z,1015.83
2018-02-10T03:36:11.235Z,1015.80
2018-02-10T03:37:13.090Z,1015.78
2018-02-10T03:38:14.944Z,1015.75
2018-02-10T03:39:16.727Z,1015.77
2018-02-10T03:40:18.509Z,1015.75
2018-02-10T03:41:20.381Z,1015.77
2018-02-10T03:42:22.249Z,1015.79
2018-02-10T03:43:24.104Z,1015.80
2018-02-10T03:44:38.266Z,1015.81
2018-02-10T03:45:40.113Z,1015.80
2018-02-10T03:46:41.969Z,1015.82
2018-02-10T03:47:43.819Z,1015.83
2018-02-10T03:48:45.607Z,1015.83
2018-02-10T03:49:47.393Z,1015.83
2018-02-10T03:50:49.265Z,1015.84
2018-02-10T03:51:51.111Z,1015.82
2018-02-10T03:52:52.962Z,1015.90
2018-02-10T03:54:07.083Z,1015.86
2018-02-10T03:55:08.955Z,1015.85
2018-02-10T03:56:10.809Z,1015.93
2018-02-10T03:57:12.688Z,1015.90
2018-02-10T03:58:14.471Z,1015.86
2018-02-10T03:59:16.262Z,1015.87
2018-02-10T04:00:18.137Z,1015.89
2018-02-10T04:01:20.011Z,1015.87
2018-02-10T04:02:21.879Z,1015.85
2018-02-10T04:03:36.054Z,1015.86
2018-02-10T04:04:37.922Z,1015.89
2018-02-10T04:05:39.774Z,1015.89
2018-02-10T04:06:41.630Z,1015.89
2018-02-10T04:07:43.438Z,1015.91
2018-02-10T04:08:45.244Z,1015.87
2018-02-10T04:09:47.117Z,1015.94
2018-02-10T04:10:48.962Z,1015.91
2018-02-10T04:11:50.821Z,1015.89
2018-02-10T04:13:04.938Z,1015.87
2018-02-10T04:14:06.799Z,1015.94
2018-02-10T04:15:08.677Z,1015.87
2018-02-10T04:16:10.548Z,1015.86
2018-02-10T04:17:12.333Z,1015.86
2018-02-10T04:18:14.121Z,1015.89
2018-02-10T04:19:15.980Z,1015.86
2018-02-10T04:20:17.848Z,1015.86
2018-02-10T04:21:19.704Z,1015.89
2018-02-10T04:22:33.874Z,1015.86
2018-02-10T04:23:35.729Z,1015.86
2018-02-10T04:24:37.600Z,1015.87
2018-02-10T04:25:39.475Z,1015.88
2018-02-10T04:26:41.282Z,1015.89
2018-02-10T04:27:43.083Z,1015.90
2018-02-10T04:28:44.937Z,1015.90
2018-02-10T04:29:46.791Z,1015.94
2018-02-10T04:30:48.645Z,1015.95
2018-02-10T04:32:02.786Z,1015.93
2018-02-10T04:33:04.635Z,1015.95
2018-02-10T04:34:06.488Z,1015.98
2018-02-10T04:35:08.362Z,1015.93
2018-02-10T04:36:10.149Z,1015.94
2018-02-10T04:37:11.931Z,1015.89
2018-02-10T04:38:13.784Z,1015.92
2018-02-10T04:39:15.630Z,1015.91
2018-02-10T04:40:17.484Z,1015.93
2018-02-10T04:41:31.619Z,1015.88
2018-02-10T04:42:33.472Z,1015.87
2018-02-10T04:43:35.331Z,1015.90
2018-02-10T04:44:37.183Z,1015.87
2018-02-10T04:45:38.988Z,1015.89
2018-02-10T04:46:40.774Z,1015.85
2018-02-10T04:47:42.648Z,1015.86
2018-02-10T04:48:44.616Z,1015.84
2018-02-10T04:49:46.474Z,1015.90
2018-02-10T04:51:00.593Z,1015.86
2018-02-10T04:52:02.468Z,1015.87
2018-02-10T04:53:04.342Z,1015.88
2018-02-10T04:54:06.195Z,1015.89
2018-02-10T04:55:08.003Z,1015.91
2018-02-10T04:56:09.811Z,1015.90
2018-02-10T04:57:11.690Z,1015.89
2018-02-10T04:58:13.557Z,1015.93
2018-02-10T04:59:15.409Z,1015.92
2018-02-10T05:00:29.530Z,1015.97
2018-02-10T05:01:31.385Z,1015.96
2018-02-10T05:02:33.239Z,1015.92
2018-02-10T05:03:35.111Z,1015.92
2018-02-10T05:04:36.898Z,1015.96
2018-02-10T05:05:38.692Z,1015.97
2018-02-10T05:06:40.562Z,1016.00
2018-02-10T05:07:42.436Z,1015.98
2018-02-10T05:08:44.288Z,1015.96
2018-02-10T05:09:58.402Z,1015.95
2018-02-10T05:11:00.279Z,1015.93
2018-02-10T05:12:02.148Z,1015.94
2018-02-10T05:13:03.996Z,1015.93
2018-02-10T05:14:05.788Z,1015.92
2018-02-10T05:15:07.590Z,1015.96
2018-02-10T05:16:09.446Z,1015.91
2018-02-10T05:17:11.295Z,1015.88
2018-02-10T05:18:13.146Z,1015.92
2018-02-10T05:19:27.334Z,1015.89
2018-02-10T05:20:29.193Z,1015.91
2018-02-10T05:21:31.044Z,1015.90
2018-02-10T05:22:32.890Z,1015.87
2018-02-10T05:23:34.681Z,1015.92
2018-02-10T05:24:36.489Z,1015.91
2018-02-10T05:25:38.361Z,1015.90
2018-02-10T05:26:40.216Z,1015.93
2018-02-10T05:27:42.070Z,1015.90
2018-02-10T05:28:56.211Z,1015.93
2018-02-10T05:29:58.063Z,1015.95
2018-02-10T05:30:59.919Z,1016.02
2018-02-10T05:32:01.792Z,1016.01
2018-02-10T05:33:03.598Z,1016.02
2018-02-10T05:34:05.405Z,1016.01
2018-02-10T05:35:07.275Z,1016.08
2018-02-10T05:36:09.123Z,1016.09
2018-02-10T05:37:10.980Z,1016.05
2018-02-10T05:38:25.158Z,1016.11
2018-02-10T05:39:26.968Z,1016.14
2018-02-10T05:40:28.825Z,1016.14
2018-02-10T05:41:30.700Z,1016.12
2018-02-10T05:42:32.508Z,1016.10
2018-02-10T05:43:34.286Z,1016.15
2018-02-10T05:44:36.156Z,1016.10
2018-02-10T05:45:38.012Z,1016.06
2018-02-10T05:46:39.881Z,1016.08
2018-02-10T05:47:53.999Z,1016.09
2018-02-10T05:48:55.853Z,1016.09
2018-02-10T05:49:57.708Z,1016.09
2018-02-10T05:50:59.576Z,1016.08
2018-02-10T05:52:01.374Z,1016.09
2018-02-10T05:53:03.179Z,1016.11
2018-02-10T05:54:05.051Z,1016.20
2018-02-10T05:55:06.898Z,1016.17
2018-02-10T05:56:08.750Z,1016.18
2018-02-10T05:57:22.867Z,1016.22
2018-02-10T05:58:24.737Z,1016.17
2018-02-10T05:59:26.591Z,1016.16
2018-02-10T06:00:28.447Z,1016.16
2018-02-10T06:01:30.246Z,1016.16
2018-02-10T06:02:32.049Z,1016.19
2018-02-10T06:03:33.879Z,1016.13
2018-02-10T06:04:35.728Z,1016.12
2018-02-10T06:05:37.582Z,1016.13
2018-02-10T06:06:51.725Z,1016.14
2018-02-10T06:07:53.601Z,1016.14
2018-02-10T06:08:55.474Z,1016.13
2018-02-10T06:09:57.330Z,1016.17
2018-02-10T06:10:59.119Z,1016.13
2018-02-10T06:12:00.930Z,1016.19
2018-02-10T06:13:02.805Z,1016.16
2018-02-10T06:14:04.676Z,1016.20
2018-02-10T06:15:06.532Z,1016.18
2018-02-10T06:16:20.654Z,1016.16
2018-02-10T06:17:22.507Z,1016.15
2018-02-10T06:18:24.366Z,1016.18
2018-02-10T06:19:26.220Z,1016.24
2018-02-10T06:20:28.029Z,1016.23
2018-02-10T06:21:29.833Z,1016.25
2018-02-10T06:22:31.692Z,1016.26
2018-02-10T06:23:33.565Z,1016.25
2018-02-10T06:24:35.419Z,1016.21
2018-02-10T06:25:49.563Z,1016.28
2018-02-10T06:26:51.454Z,1016.29
2018-02-10T06:27:53.358Z,1016.33
2018-02-10T06:28:55.178Z,1016.31
2018-02-10T06:29:56.985Z,1016.34
2018-02-10T06:30:58.795Z,1016.38
2018-02-10T06:32:00.675Z,1016.40
2018-02-10T06:33:02.539Z,1016.43
2018-02-10T06:34:04.398Z,1016.47
2018-02-10T06:35:18.540Z,1016.44
2018-02-10T06:36:20.397Z,1016.48
2018-02-10T06:37:22.252Z,1016.48
2018-02-10T06:38:24.100Z,1016.46
2018-02-10T06:39:25.892Z,1016.50
2018-02-10T06:40:27.680Z,1016.52
2018-02-10T06:41:29.536Z,1016.54
2018-02-10T06:42:31.388Z,1016.56
2018-02-10T06:43:33.244Z,1016.57
2018-02-10T06:44:47.366Z,1016.62
2018-02-10T06:45:49.227Z,1016.61
2018-02-10T06:46:51.101Z,1016.66
2018-02-10T06:47:52.950Z,1016.67
2018-02-10T06:48:54.740Z,1016.69
2018-02-10T06:49:56.526Z,1016.69
2018-02-10T06:50:58.383Z,1016.69
2018-02-10T06:52:00.242Z,1016.73
2018-02-10T06:53:02.119Z,1016.70
2018-02-10T06:54:16.315Z,1016.72
2018-02-10T06:55:18.188Z,1016.68
2018-02-10T06:56:20.046Z,1016.68
2018-02-10T06:57:21.921Z,1016.70
2018-02-10T06:58:23.734Z,1016.73
2018-02-10T06:59:25.544Z,1016.76
2018-02-10T07:00:27.422Z,1016.71
2018-02-10T07:01:29.349Z,1016.74
2018-02-10T07:02:31.246Z,1016.72
2018-02-10T07:03:45.365Z,1016.76
2018-02-10T07:04:47.223Z,1016.74
2018-02-10T07:05:49.096Z,1016.75
2018-02-10T07:06:50.934Z,1016.75
2018-02-10T07:07:52.727Z,1016.83
2018-02-10T07:08:54.530Z,1016.78
2018-02-10T07:09:56.390Z,1016.80
2018-02-10T07:10:58.250Z,1016.83
2018-02-10T07:12:00.155Z,1016.82
2018-02-10T07:13:14.265Z,1016.83
2018-02-10T07:14:16.153Z,1016.86
2018-02-10T07:15:17.999Z,1016.84
2018-02-10T07:16:19.882Z,1016.84
2018-02-10T07:17:21.673Z,1016.88
2018-02-10T07:18:23.486Z,1016.90
2018-02-10T07:19:25.362Z,1016.87
2018-02-10T07:20:27.236Z,1016.92
2018-02-10T07:21:29.103Z,1016.89
2018-02-10T07:22:43.271Z,1016.90
2018-02-10T07:23:45.158Z,1016.87
2018-02-10T07:24:47.027Z,1016.85
2018-02-10T07:25:48.911Z,1016.87
2018-02-10T07:26:50.699Z,1016.87
2018-02-10T07:27:52.485Z,1016.91
2018-02-10T07:28:54.354Z,1016.94
2018-02-10T07:29:56.238Z,1016.98
2018-02-10T07:30:58.116Z,1016.93
2018-02-10T07:32:12.262Z,1016.97
2018-02-10T07:33:14.133Z,1016.94
2018-02-10T07:34:15.989Z,1016.96
2018-02-10T07:35:17.844Z,1016.95
2018-02-10T07:36:19.641Z,1016.97
2018-02-10T07:37:21.454Z,1016.97
2018-02-10T07:38:23.331Z,1016.98
2018-02-10T07:39:25.190Z,1016.96
2018-02-10T07:40:27.067Z,1016.99
2018-02-10T07:41:41.257Z,1017.02
2018-02-10T07:42:43.122Z,1016.96
2018-02-10T07:43:44.982Z,1017.00
2018-02-10T07:44:46.861Z,1017.04
2018-02-10T07:45:48.655Z,1017.00
2018-02-10T07:46:50.442Z,1016.99
2018-02-10T07:47:52.305Z,1017.00
2018-02-10T07:48:54.177Z,1017.01
2018-02-10T07:49:56.238Z,1017.05
2018-02-10T07:51:10.580Z,1017.05
2018-02-10T07:52:12.471Z,1017.05
2018-02-10T07:53:14.348Z,1017.09
2018-02-10T07:54:16.206Z,1017.09
2018-02-10T07:55:18.002Z,1017.09
2018-02-10T07:56:19.811Z,1017.07
2018-02-10T07:57:21.675Z,1017.10
2018-02-10T07:58:23.549Z,1017.10
2018-02-10T07:59:25.409Z,1017.07
2018-02-10T08:00:39.538Z,1017.12
2018-02-10T08:01:41.424Z,1017.13
2018-02-10T08:02:43.294Z,1017.16
2018-02-10T08:03:45.150Z,1017.19
2018-02-10T08:04:46.939Z,1017.22
2018-02-10T08:05:48.732Z,1017.18
2018-02-10T08:06:50.611Z,1017.21
2018-02-10T08:07:52.518Z,1017.22
2018-02-10T08:08:54.371Z,1017.25
2018-02-10T08:10:08.502Z,1017.24
2018-02-10T08:11:10.381Z,1017.27
2018-02-10T08:12:12.259Z,1017.32
2018-02-10T08:13:14.141Z,1017.29
2018-02-10T08:14:15.941Z,1017.32
2018-02-10T08:15:17.754Z,1017.30
2018-02-10T08:16:19.631Z,1017.30
2018-02-10T08:17:21.491Z,1017.33
2018-02-10T08:18:23.348Z,1017.35
2018-02-10T08:19:37.493Z,1017.33
2018-02-10T08:20:39.352Z,1017.33
2018-02-10T08:21:41.222Z,1017.35
2018-02-10T08:22:43.097Z,1017.31
2018-02-10T08:23:44.891Z,1017.30
2018-02-10T08:24:46.688Z,1017.26
2018-02-10T08:25:48.603Z,1017.24
2018-02-10T08:26:50.422Z,1017.24
2018-02-10T08:27:52.287Z,1017.20
2018-02-10T08:29:06.413Z,1017.23
2018-02-10T08:30:08.273Z,1017.21
2018-02-10T08:31:10.129Z,1017.20
2018-02-10T08:32:11.988Z,1017.17
2018-02-10T08:33:13.788Z,1017.21
2018-02-10T08:34:15.597Z,1017.20
2018-02-10T08:35:17.460Z,1017.22
2018-02-10T08:36:19.325Z,1017.21
2018-02-10T08:37:21.200Z,1017.21
2018-02-10T08:38:35.326Z,1017.19
2018-02-10T08:39:37.207Z,1017.19
2018-02-10T08:40:39.066Z,1017.20
2018-02-10T08:41:40.941Z,1017.18
2018-02-10T08:42:42.734Z,1017.17
2018-02-10T08:43:44.526Z,1017.18
2018-02-10T08:44:46.389Z,1017.16
2018-02-10T08:45:48.252Z,1017.18
2018-02-10T08:46:50.145Z,1017.20
2018-02-10T08:48:04.292Z,1017.19
2018-02-10T08:49:06.150Z,1017.18
2018-02-10T08:50:08.010Z,1017.16
2018-02-10T08:51:09.868Z,1017.21
2018-02-10T08:52:11.678Z,1017.20
2018-02-10T08:53:13.470Z,1017.17
2018-02-10T08:54:15.338Z,1017.17
2018-02-10T08:55:17.212Z,1017.18
2018-02-10T08:56:19.212Z,1017.19
2018-02-10T08:57:33.389Z,1017.18
2018-02-10T08:58:35.274Z,1017.20
2018-02-10T08:59:37.128Z,1017.24
2018-02-10T09:00:39.006Z,1017.21
2018-02-10T09:01:40.842Z,1017.23
2018-02-10T09:02:42.636Z,1017.19
2018-02-10T09:03:44.528Z,1017.22
2018-02-10T09:04:46.399Z,1017.23
2018-02-10T09:05:48.281Z,1017.22
2018-02-10T09:07:02.430Z,1017.21
2018-02-10T09:08:04.313Z,1017.23
2018-02-10T09:09:06.197Z,1017.21
2018-02-10T09:10:08.069Z,1017.18
2018-02-10T09:11:09.873Z,1017.26
2018-02-10T09:12:11.710Z,1017.21
2018-02-10T09:13:13.548Z,1017.24
2018-02-10T09:14:15.427Z,1017.23
2018-02-10T09:15:17.284Z,1017.27
2018-02-10T09:16:31.435Z,1017.24
2018-02-10T09:17:33.322Z,1017.26
2018-02-10T09:18:35.196Z,1017.23
2018-02-10T09:19:37.061Z,1017.26
2018-02-10T09:20:38.875Z,1017.25
2018-02-10T09:21:40.674Z,1017.29
2018-02-10T09:22:42.537Z,1017.28
2018-02-10T09:23:44.410Z,1017.32
2018-02-10T09:24:46.282Z,1017.30
2018-02-10T09:26:00.408Z,1017.33
2018-02-10T09:27:02.272Z,1017.29
2018-02-10T09:28:04.146Z,1017.32
2018-02-10T09:29:06.025Z,1017.33
2018-02-10T09:30:07.829Z,1017.33
2018-02-10T09:31:09.647Z,1017.29
2018-02-10T09:32:11.551Z,1017.30
2018-02-10T09:33:13.438Z,1017.31
2018-02-10T09:34:15.305Z,1017.33
2018-02-10T09:35:29.453Z,1017.36
2018-02-10T09:36:31.332Z,1017.33
2018-02-10T09:37:33.191Z,1017.35
2018-02-10T09:38:35.053Z,1017.36
2018-02-10T09:39:36.851Z,1017.34
2018-02-10T09:40:38.643Z,1017.43
2018-02-10T09:41:40.517Z,1017.38
2018-02-10T09:42:42.331Z,1017.36
2018-02-10T09:43:44.130Z,1017.38
2018-02-10T09:44:58.300Z,1017.31
2018-02-10T09:46:00.181Z,1017.34
2018-02-10T09:47:02.046Z,1017.29
2018-02-10T09:48:03.937Z,1017.29
2018-02-10T09:49:05.764Z,1017.31
2018-02-10T09:50:07.576Z,1017.30
2018-02-10T09:51:09.435Z,1017.32
2018-02-10T09:52:11.339Z,1017.32
2018-02-10T09:53:13.161Z,1017.29
2018-02-10T09:54:27.435Z,1017.28
2018-02-10T09:55:29.330Z,1017.29
2018-02-10T09:56:31.194Z,1017.30
2018-02-10T09:57:33.156Z,1017.26
2018-02-10T09:58:34.991Z,1017.26
2018-02-10T09:59:36.889Z,1017.27
2018-02-10T10:00:38.749Z,1017.23
2018-02-10T10:01:40.666Z,1017.27
2018-02-10T10:02:42.502Z,1017.29
2018-02-10T10:03:56.634Z,1017.28
2018-02-10T10:04:58.509Z,1017.26
2018-02-10T10:06:00.390Z,1017.26
2018-02-10T10:07:02.255Z,1017.24
2018-02-10T10:08:04.063Z,1017.25
2018-02-10T10:09:05.861Z,1017.22
2018-02-10T10:10:07.727Z,1017.21
2018-02-10T10:11:09.589Z,1017.22
2018-02-10T10:12:11.468Z,1017.23
2018-02-10T10:13:25.616Z,1017.25
2018-02-10T10:14:27.500Z,1017.26
2018-02-10T10:15:29.362Z,1017.23
2018-02-10T10:16:31.226Z,1017.20
2018-02-10T10:17:33.019Z,1017.16
2018-02-10T10:18:34.819Z,1017.17
2018-02-10T10:19:36.685Z,1017.16
2018-02-10T10:20:38.560Z,1017.20
2018-02-10T10:21:40.420Z,1017.15
2018-02-10T10:22:54.555Z,1017.14
2018-02-10T10:23:56.440Z,1017.09
2018-02-10T10:24:58.303Z,1017.08
2018-02-10T10:26:00.186Z,1017.04
2018-02-10T10:27:02.001Z,1017.05
2018-02-10T10:28:03.832Z,1017.03
2018-02-10T10:29:05.662Z,1016.97
2018-02-10T10:30:07.520Z,1017.00
2018-02-10T10:31:09.399Z,1017.02
2018-02-10T10:32:23.541Z,1017.01
2018-02-10T10:33:25.398Z,1017.04
2018-02-10T10:34:27.246Z,1017.03
2018-02-10T10:35:29.106Z,1017.04
2018-02-10T10:36:30.902Z,1017.10
2018-02-10T10:37:32.721Z,1017.09
2018-02-10T10:38:34.588Z,1017.13
2018-02-10T10:39:36.523Z,1017.13
2018-02-10T10:40:38.402Z,1017.17
2018-02-10T10:41:52.551Z,1017.18
2018-02-10T10:42:54.512Z,1017.17
2018-02-10T10:43:56.380Z,1017.17
2018-02-10T10:44:58.237Z,1017.19
2018-02-10T10:46:00.085Z,1017.14
2018-02-10T10:47:01.898Z,1017.15
2018-02-10T10:48:03.810Z,1017.17
2018-02-10T10:49:05.636Z,1017.14
2018-02-10T10:50:07.517Z,1017.14
2018-02-10T10:51:21.646Z,1017.13
2018-02-10T10:52:23.506Z,1017.11
2018-02-10T10:53:25.389Z,1017.13
2018-02-10T10:54:27.269Z,1017.13
2018-02-10T10:55:29.067Z,1017.13
2018-02-10T10:56:30.880Z,1017.13
2018-02-10T10:57:32.765Z,1017.10
2018-02-10T10:58:34.637Z,1017.10
2018-02-10T10:59:36.507Z,1017.08
2018-02-10T11:00:50.704Z,1017.09
2018-02-10T11:01:52.599Z,1017.02
2018-02-10T11:02:54.483Z,1017.02
2018-02-10T11:03:56.362Z,1016.99
2018-02-10T11:04:58.180Z,1017.01
2018-02-10T11:05:59.987Z,1016.98
2018-02-10T11:07:01.846Z,1017.01
2018-02-10T11:08:03.704Z,1016.95
2018-02-10T11:09:05.564Z,1016.94
2018-02-10T11:10:19.738Z,1016.94
2018-02-10T11:11:21.595Z,1016.94
2018-02-10T11:12:23.492Z,1016.91
2018-02-10T11:13:25.339Z,1016.92
2018-02-10T11:14:27.133Z,1016.87
2018-02-10T11:15:28.950Z,1016.88
2018-02-10T11:16:30.807Z,1016.89
2018-02-10T11:17:32.686Z,1016.86
2018-02-10T11:18:34.584Z,1016.83
2018-02-10T11:19:48.742Z,1016.85
2018-02-10T11:20:50.623Z,1016.84
2018-02-10T11:21:52.489Z,1016.81
2018-02-10T11:22:54.383Z,1016.77
2018-02-10T11:23:56.152Z,1016.78
2018-02-10T11:24:57.950Z,1016.78
2018-02-10T11:25:59.814Z,1016.71
2018-02-10T11:27:01.691Z,1016.79
2018-02-10T11:28:03.549Z,1016.76
2018-02-10T11:29:17.696Z,1016.72
2018-02-10T11:30:19.569Z,1016.75
2018-02-10T11:31:21.439Z,1016.71
2018-02-10T11:32:23.297Z,1016.74
2018-02-10T11:33:25.098Z,1016.68
2018-02-10T11:34:26.892Z,1016.72
2018-02-10T11:35:28.753Z,1016.77
2018-02-10T11:36:30.638Z,1016.72
2018-02-10T11:37:32.519Z,1016.71
2018-02-10T11:38:46.679Z,1016.69
2018-02-10T11:39:48.556Z,1016.74
2018-02-10T11:40:50.423Z,1016.77
2018-02-10T11:41:52.297Z,1016.76
2018-02-10T11:42:54.097Z,1016.72
2018-02-10T11:43:55.909Z,1016.74
2018-02-10T11:44:57.771Z,1016.74
2018-02-10T11:45:59.653Z,1016.75
2018-02-10T11:47:01.515Z,1016.74
2018-02-10T11:48:15.669Z,1016.72
2018-02-10T11:49:17.542Z,1016.73
2018-02-10T11:50:19.416Z,1016.73
2018-02-10T11:51:21.297Z,1016.73
2018-02-10T11:52:23.121Z,1016.75
2018-02-10T11:53:24.930Z,1016.72
2018-02-10T11:54:26.808Z,1016.69
2018-02-10T11:55:28.670Z,1016.68
2018-02-10T11:56:30.544Z,1016.69
2018-02-10T11:57:44.746Z,1016.70
2018-02-10T11:58:46.597Z,1016.72
2018-02-10T11:59:48.461Z,1016.74
2018-02-10T12:00:50.341Z,1016.69
2018-02-10T12:01:52.169Z,1016.75
2018-02-10T12:02:53.974Z,1016.72
2018-02-10T12:03:55.855Z,1016.73
2018-02-10T12:04:57.693Z,1016.76
2018-02-10T12:05:59.575Z,1016.73
2018-02-10T12:07:13.690Z,1016.74
2018-02-10T12:08:15.553Z,1016.75
2018-02-10T12:09:17.421Z,1016.76
2018-02-10T12:10:19.295Z,1016.79
2018-02-10T12:11:21.110Z,1016.81
2018-02-10T12:12:22.929Z,1016.81
2018-02-10T12:13:24.790Z,1016.80
2018-02-10T12:14:26.649Z,1016.83
2018-02-10T12:15:28.505Z,1016.79
2018-02-10T12:16:42.636Z,1016.78
2018-02-10T12:17:44.516Z,1016.72
2018-02-10T12:18:46.413Z,1016.71
2018-02-10T12:19:48.241Z,1016.68
2018-02-10T12:20:50.058Z,1016.68
2018-02-10T12:21:51.858Z,1016.64
2018-02-10T12:22:53.728Z,1016.67
2018-02-10T12:23:55.599Z,1016.66
2018-02-10T12:24:57.457Z,1016.68
2018-02-10T12:26:11.608Z,1016.63
2018-02-10T12:27:13.473Z,1016.62
2018-02-10T12:28:15.329Z,1016.66
2018-02-10T12:29:17.181Z,1016.62
2018-02-10T12:30:18.981Z,1016.63
2018-02-10T12:31:20.777Z,1016.61
2018-02-10T12:32:22.637Z,1016.59
2018-02-10T12:33:24.490Z,1016.57
2018-02-10T12:34:26.346Z,1016.60
2018-02-10T12:35:40.473Z,1016.61
2018-02-10T12:36:42.340Z,1016.57
2018-02-10T12:37:44.219Z,1016.58
2018-02-10T12:38:46.083Z,1016.56
2018-02-10T12:39:47.873Z,1016.52
2018-02-10T12:40:49.672Z,1016.53
2018-02-10T12:41:51.550Z,1016.49
2018-02-10T12:42:53.409Z,1016.49
2018-02-10T12:43:55.266Z,1016.48